Time;durP1;ratioP1;P1;durP2;ratioP2;P2;SDS_P1;SDS_P2;PMS_P1;PMS_P2;Temp;Humidity;BMP_temperature;BMP_pressure;BME280_temperature;BME280_humidity;BME280_pressure;Samples;Min_cycle;Max_cycle;Signal;HPM_P1;HPM_P2
2022/10/31 00:01:12;;;;;;;7.03;1.70;;;;;;;12.01;100.00;100076.59;4956123;28;20097;-92
2022/10/31 00:03:38;;;;;;;10.77;1.58;;;;;;;12.14;100.00;100097.75;4955584;28;20113;-91
2022/10/31 00:06:05;;;;;;;7.40;1.60;;;;;;;12.01;100.00;100073.13;4972442;28;20055;-92
2022/10/31 00:08:32;;;;;;;8.27;1.92;;;;;;;11.78;100.00;100059.44;4954859;28;20083;-91
2022/10/31 00:10:59;;;;;;;14.02;2.35;;;;;;;12.05;100.00;100093.00;4955411;28;20062;-91
2022/10/31 00:13:26;;;;;;;12.13;2.13;;;;;;;11.80;100.00;100073.28;4946951;28;20101;-92
2022/10/31 00:15:53;;;;;;;6.22;1.80;;;;;;;12.01;100.00;100104.59;4971552;28;20057;-91
2022/10/31 00:18:19;;;;;;;6.65;1.67;;;;;;;11.93;100.00;100091.88;4946490;29;20051;-92
2022/10/31 00:20:46;;;;;;;4.00;1.38;;;;;;;11.98;100.00;100113.47;4954182;28;20047;-91
2022/10/31 00:23:13;;;;;;;7.32;1.52;;;;;;;11.94;100.00;100097.03;4956109;28;20355;-91
2022/10/31 00:25:40;;;;;;;9.18;1.70;;;;;;;12.06;100.00;100118.31;4954774;28;20050;-91
2022/10/31 00:28:09;;;;;;;6.53;1.60;;;;;;;11.94;100.00;100123.28;4962543;28;20051;-92
2022/10/31 00:30:36;;;;;;;8.77;2.35;;;;;;;11.83;100.00;100122.97;4955264;28;20697;-91
2022/10/31 00:33:05;;;;;;;5.50;2.10;;;;;;;11.67;100.00;100114.19;4971982;28;20113;-91
2022/10/31 00:35:32;;;;;;;6.38;1.70;;;;;;;11.94;100.00;100146.06;4961480;28;20102;-91
2022/10/31 00:37:59;;;;;;;5.93;1.67;;;;;;;11.41;100.00;100090.19;4954615;28;20080;-91
2022/10/31 00:40:26;;;;;;;5.45;1.73;;;;;;;11.81;100.00;100132.72;4956039;28;20051;-91
2022/10/31 00:42:53;;;;;;;5.53;2.08;;;;;;;11.75;100.00;100133.84;4975064;28;20042;-91
2022/10/31 00:45:20;;;;;;;6.60;1.73;;;;;;;11.71;100.00;100134.09;4982873;28;20413;-92
2022/10/31 00:47:46;;;;;;;6.85;1.83;;;;;;;11.73;100.00;100133.09;4952074;28;20043;-92
2022/10/31 00:50:13;;;;;;;9.93;2.10;;;;;;;11.71;100.00;100148.06;4957499;28;20050;-90
2022/10/31 00:52:39;;;;;;;8.30;2.03;;;;;;;11.85;100.00;100143.88;4943565;29;20051;-92
2022/10/31 00:55:06;;;;;;;6.07;2.10;;;;;;;11.56;100.00;100114.75;4959291;28;20110;-90
2022/10/31 00:57:33;;;;;;;8.68;2.35;;;;;;;11.66;100.00;100134.34;4960231;28;20106;-91
2022/10/31 01:00:00;;;;;;;5.53;1.90;;;;;;;11.73;100.00;100148.81;4960395;28;20050;-91
2022/10/31 01:02:26;;;;;;;11.13;2.80;;;;;;;11.47;100.00;100123.94;4955296;28;20390;-91
2022/10/31 01:04:53;;;;;;;8.20;1.98;;;;;;;11.61;100.00;100133.72;4952268;28;20420;-90
2022/10/31 01:07:20;;;;;;;7.03;2.20;;;;;;;11.58;100.00;100133.91;4959288;28;20429;-91
2022/10/31 01:09:47;;;;;;;8.90;2.17;;;;;;;11.62;100.00;100145.06;4955265;28;20164;-91
2022/10/31 01:12:14;;;;;;;6.60;2.35;;;;;;;11.80;100.00;100162.47;4956161;28;20055;-91
2022/10/31 01:14:44;;;;;;;5.28;1.60;;;;;;;11.78;100.00;100149.44;4953063;29;20556;-91
2022/10/31 01:17:12;;;;;;;4.53;1.58;;;;;;;11.77;100.00;100166.13;4968863;28;20091;-90
2022/10/31 01:19:39;;;;;;;6.07;1.58;;;;;;;11.86;100.00;100158.69;4955024;28;20042;-91
2022/10/31 01:22:06;;;;;;;7.00;2.15;;;;;;;11.39;100.00;100113.84;4955175;28;20054;-91
2022/10/31 01:24:33;;;;;;;7.57;1.90;;;;;;;11.83;100.00;100164.06;4955658;28;20548;-91
2022/10/31 01:27:00;;;;;;;6.68;1.85;;;;;;;11.75;100.00;100146.97;4955618;28;20050;-91
2022/10/31 01:29:26;;;;;;;5.78;1.73;;;;;;;11.52;100.00;100134.19;4957240;28;20062;-91
2022/10/31 01:31:53;;;;;;;13.00;2.15;;;;;;;11.40;100.00;100133.91;4958488;28;20055;-91
2022/10/31 01:34:20;;;;;;;7.50;1.60;;;;;;;11.64;100.00;100175.53;4958936;28;20054;-90
2022/10/31 01:36:50;;;;;;;12.38;2.58;;;;;;;11.65;100.00;100168.50;4964939;28;20046;-90
2022/10/31 01:39:19;;;;;;;9.48;2.20;;;;;;;11.64;100.00;100167.66;4958460;28;20046;-90
2022/10/31 01:41:48;;;;;;;7.70;2.33;;;;;;;11.61;100.00;100175.69;4959628;28;20051;-90
2022/10/31 01:44:15;;;;;;;6.97;1.58;;;;;;;11.68;100.00;100170.97;4958425;28;20138;-91
2022/10/31 01:46:53;;;;;;;7.60;2.22;;;;;;;11.66;100.00;100180.69;4952387;29;20055;-91
2022/10/31 01:49:23;;;;;;;7.28;2.15;;;;;;;11.61;100.00;100174.84;4956849;28;20046;-92
2022/10/31 01:51:58;;;;;;;9.35;2.63;;;;;;;11.57;100.00;100154.00;4967170;28;20038;-90
2022/10/31 01:54:29;;;;;;;9.02;2.25;;;;;;;11.61;100.00;100159.94;4973646;28;20051;-90
2022/10/31 01:56:58;;;;;;;6.80;1.73;;;;;;;11.54;100.00;100164.66;4974052;28;20519;-90
2022/10/31 01:59:30;;;;;;;7.03;1.92;;;;;;;11.72;100.00;100170.75;4954125;29;20051;-91
2022/10/31 02:01:57;;;;;;;6.68;1.60;;;;;;;11.83;100.00;100154.44;4956094;28;20051;-91
2022/10/31 02:04:25;;;;;;;9.73;1.83;;;;;;;11.88;100.00;100169.94;4958384;28;20057;-91
2022/10/31 02:07:04;;;;;;;8.50;1.77;;;;;;;12.00;100.00;100161.44;4968220;28;20113;-91
2022/10/31 02:09:31;;;;;;;8.73;1.52;;;;;;;12.11;100.00;100160.88;4957938;28;20109;-91
2022/10/31 02:11:59;;;;;;;6.82;2.00;;;;;;;12.13;100.00;100156.44;4957105;28;20102;-90
2022/10/31 02:14:29;;;;;;;8.20;1.73;;;;;;;11.96;100.00;100152.06;4973832;28;20055;-91
2022/10/31 02:16:56;;;;;;;9.20;1.75;;;;;;;12.13;100.00;100167.75;4971959;28;20063;-90
2022/10/31 02:19:42;;;;;;;7.45;1.90;;;;;;;12.16;100.00;100172.00;4958935;28;20409;-90
2022/10/31 02:22:14;;;;;;;10.30;1.98;;;;;;;12.21;100.00;100175.22;4957804;28;20075;-91
2022/10/31 02:25:15;;;;;;;14.50;1.85;;;;;;;12.35;100.00;100179.72;4948747;29;20055;-91
2022/10/31 02:27:54;;;;;;;7.07;1.55;;;;;;;12.02;100.00;100120.25;4944572;28;20078;-91
2022/10/31 02:30:24;;;;;;;7.93;1.55;;;;;;;12.17;100.00;100136.97;4959913;28;20050;-91
2022/10/31 02:33:06;;;;;;;11.45;1.75;;;;;;;12.11;100.00;100142.50;4962200;28;20043;-92
2022/10/31 02:35:41;;;;;;;7.85;1.80;;;;;;;12.28;100.00;100157.38;4958326;28;20054;-92
2022/10/31 02:38:29;;;;;;;7.97;1.83;;;;;;;12.25;100.00;100141.78;4959716;28;20043;-92
2022/10/31 02:41:33;;;;;;;9.88;2.15;;;;;;;12.43;100.00;100166.19;4951862;28;20485;-92
2022/10/31 02:44:15;;;;;;;;;;;;;;;12.46;100.00;100184.41;4954886;29;20481;-92
2022/10/31 02:47:05;;;;;;;8.82;1.90;;;;;;;12.32;100.00;100165.00;4956031;28;19969;-91
2022/10/31 02:49:44;;;;;;;10.32;2.10;;;;;;;12.43;100.00;100169.69;4955985;28;20105;-92
2022/10/31 02:52:23;;;;;;;9.98;2.15;;;;;;;12.39;100.00;100183.88;4958909;28;20054;-90
2022/10/31 02:54:50;;;;;;;15.32;2.22;;;;;;;12.48;100.00;100185.16;4957873;28;20058;-92
2022/10/31 02:57:24;;;;;;;8.43;2.03;;;;;;;12.37;100.00;100191.00;4958159;28;20058;-90
2022/10/31 03:00:00;;;;;;;14.25;2.05;;;;;;;12.23;100.00;100183.84;4958567;28;20054;-91
2022/10/31 03:02:58;;;;;;;10.93;1.95;;;;;;;12.39;100.00;100202.25;4983772;28;20051;-90
2022/10/31 03:05:31;;;;;;;9.63;2.20;;;;;;;12.30;100.00;100194.88;4966407;28;20047;-90
2022/10/31 03:08:35;;;;;;;9.70;1.95;;;;;;;12.40;100.00;100198.72;4965045;28;20058;-92
2022/10/31 03:11:07;;;;;;;8.60;1.70;;;;;;;12.17;100.00;100196.47;4969676;28;20398;-91
2022/10/31 03:13:41;;;;;;;11.05;2.45;;;;;;;12.45;100.00;100196.69;4970504;28;20054;-91
2022/10/31 03:16:12;;;;;;;;;;;;;;;12.50;100.00;100194.66;4957502;28;20059;-91
2022/10/31 03:18:59;;;;;;;10.82;3.63;;;;;;;12.55;100.00;100202.28;4956430;28;19929;-91
2022/10/31 03:21:35;;;;;;;11.55;1.90;;;;;;;12.39;100.00;100168.13;4956875;28;20490;-90
2022/10/31 03:24:06;;;;;;;12.13;1.77;;;;;;;12.51;100.00;100213.88;4960373;28;20167;-91
2022/10/31 03:26:35;;;;;;;11.15;1.63;;;;;;;12.24;100.00;100161.09;4952267;28;20054;-91
2022/10/31 03:29:06;;;;;;;11.65;1.65;;;;;;;12.48;100.00;100201.78;4979231;28;20112;-90
2022/10/31 03:31:42;;;;;;;9.85;2.10;;;;;;;12.33;100.00;100203.44;4973924;28;20050;-91
2022/10/31 03:34:12;;;;;;;6.18;1.83;;;;;;;12.48;100.00;100198.28;4956701;28;20359;-91
2022/10/31 03:36:41;;;;;;;6.93;1.55;;;;;;;12.14;100.00;100152.84;4956707;28;20050;-91
2022/10/31 03:39:12;;;;;;;8.18;1.50;;;;;;;12.57;100.00;100217.94;4959190;28;20441;-90
2022/10/31 03:41:43;;;;;;;10.60;2.15;;;;;;;12.43;100.00;100201.19;4960366;28;20642;-91
2022/10/31 03:44:20;;;;;;;10.65;2.33;;;;;;;12.43;100.00;100209.06;4961731;28;20105;-90
2022/10/31 03:46:48;;;;;;;7.80;1.60;;;;;;;12.47;100.00;100196.63;4960167;28;20050;-90
2022/10/31 03:49:15;;;;;;;9.95;2.20;;;;;;;12.53;100.00;100199.72;4972150;28;20106;-91
2022/10/31 03:51:46;;;;;;;12.88;2.40;;;;;;;12.60;100.00;100199.41;4956629;28;20051;-91
2022/10/31 03:54:31;;;;;;;7.70;1.90;;;;;;;12.62;100.00;100206.25;4946941;29;20059;-91
2022/10/31 03:57:24;;;;;;;11.98;2.00;;;;;;;12.39;100.00;100186.50;4960645;28;20394;-92
2022/10/31 03:59:57;;;;;;;7.07;2.17;;;;;;;12.47;100.00;100207.13;4973787;28;20500;-90
2022/10/31 04:02:29;;;;;;;7.00;2.38;;;;;;;12.37;100.00;100198.03;4955789;28;20046;-92
2022/10/31 04:04:57;;;;;;;13.02;2.03;;;;;;;12.27;100.00;100190.66;4956821;28;20073;-91
2022/10/31 04:07:30;;;;;;;10.82;2.83;;;;;;;12.13;100.00;100180.03;4974245;28;20055;-91
2022/10/31 04:09:59;;;;;;;15.75;2.58;;;;;;;12.23;100.00;100178.59;4961799;28;20054;-91
2022/10/31 04:12:29;;;;;;;14.45;2.47;;;;;;;12.10;100.00;100174.94;4943316;28;20113;-91
2022/10/31 04:14:57;;;;;;;10.88;1.70;;;;;;;12.15;100.00;100170.31;4973353;28;20454;-91
2022/10/31 04:17:29;;;;;;;11.45;2.20;;;;;;;12.01;100.00;100167.56;4956464;28;20051;-91
2022/10/31 04:20:00;;;;;;;8.20;1.87;;;;;;;12.21;100.00;100174.38;4975782;28;20050;-91
2022/10/31 04:22:26;;;;;;;8.25;2.05;;;;;;;11.91;100.00;100133.94;4954201;28;20297;-92
2022/10/31 04:24:53;;;;;;;13.13;1.80;;;;;;;12.00;100.00;100150.13;4963886;28;20047;-93
2022/10/31 04:27:20;;;;;;;10.65;2.20;;;;;;;12.07;100.00;100162.81;4954215;28;20047;-93
2022/10/31 04:29:47;;;;;;;9.80;2.35;;;;;;;11.99;100.00;100143.16;4947233;28;20102;-91
2022/10/31 04:32:16;;;;;;;9.45;2.20;;;;;;;11.85;100.00;100112.41;4956841;28;20065;-91
2022/10/31 04:34:43;;;;;;;9.10;2.10;;;;;;;12.22;100.00;100171.69;4943086;29;20062;-95
2022/10/31 04:37:10;;;;;;;14.13;2.85;;;;;;;11.88;100.00;100120.09;4969173;28;20121;-92
2022/10/31 04:39:36;;;;;;;12.80;2.38;;;;;;;11.94;100.00;100135.56;4955671;28;20054;-92
2022/10/31 04:42:03;;;;;;;12.18;2.47;;;;;;;12.13;100.00;100178.25;4974249;28;20059;-92
2022/10/31 04:44:30;;;;;;;9.45;2.20;;;;;;;12.09;100.00;100179.38;4962625;28;20061;-93
2022/10/31 04:46:57;;;;;;;9.00;2.00;;;;;;;12.08;100.00;100147.94;4972256;28;20106;-89
2022/10/31 04:49:23;;;;;;;11.75;2.45;;;;;;;12.34;100.00;100185.91;4952753;28;20058;-89
2022/10/31 04:51:50;;;;;;;12.68;2.60;;;;;;;12.02;100.00;100154.34;4955958;28;20054;-89
2022/10/31 04:54:17;;;;;;;19.50;3.50;;;;;;;12.21;100.00;100158.63;4956172;28;20129;-90
2022/10/31 04:56:44;;;;;;;11.15;2.53;;;;;;;12.21;100.00;100167.34;4973297;28;20098;-90
2022/10/31 04:59:11;;;;;;;13.10;2.55;;;;;;;11.95;100.00;100142.47;4972041;28;20171;-91
2022/10/31 05:01:37;;;;;;;10.40;2.33;;;;;;;12.21;100.00;100162.09;4952991;28;20397;-91
2022/10/31 05:04:04;;;;;;;11.75;2.05;;;;;;;12.25;100.00;100158.41;4958283;28;20547;-92
2022/10/31 05:06:31;;;;;;;10.55;1.80;;;;;;;12.13;100.00;100132.81;4959263;28;20489;-90
2022/10/31 05:08:58;;;;;;;9.80;1.70;;;;;;;12.10;100.00;100140.84;4974844;28;20042;-90
2022/10/31 05:11:25;;;;;;;12.25;1.90;;;;;;;12.18;100.00;100166.66;4979792;28;20114;-91
2022/10/31 05:13:51;;;;;;;4.85;1.63;;;;;;;11.78;100.00;100122.38;4959352;28;20458;-91
2022/10/31 05:16:18;;;;;;;8.52;1.80;;;;;;;11.90;100.00;100144.50;4958876;28;20120;-91
2022/10/31 05:18:45;;;;;;;12.95;2.30;;;;;;;12.01;100.00;100170.19;4952676;28;20561;-91
2022/10/31 05:21:11;;;;;;;10.93;1.58;;;;;;;12.09;100.00;100152.25;4959459;28;20050;-91
2022/10/31 05:23:38;;;;;;;10.80;2.35;;;;;;;11.65;100.00;100113.44;4958871;28;20110;-91
2022/10/31 05:26:12;;;;;;;10.85;1.92;;;;;;;11.88;100.00;100126.22;4962967;28;20180;-91
2022/10/31 05:28:39;;;;;;;5.60;1.67;;;;;;;11.77;100.00;100118.91;4958678;28;20496;-91
2022/10/31 05:31:06;;;;;;;7.45;1.48;;;;;;;12.01;100.00;100146.59;4959789;28;20445;-91
2022/10/31 05:33:33;;;;;;;14.10;2.15;;;;;;;11.78;100.00;100135.47;4973625;28;20151;-91
2022/10/31 05:35:59;;;;;;;12.80;2.17;;;;;;;11.92;100.00;100176.78;4958558;28;20059;-91
2022/10/31 05:38:26;;;;;;;20.92;2.55;;;;;;;11.81;100.00;100163.31;4959008;28;20058;-91
2022/10/31 05:41:05;;;;;;;13.73;2.28;;;;;;;12.01;100.00;100173.66;4962212;28;20573;-91
2022/10/31 05:43:32;;;;;;;8.82;2.08;;;;;;;11.94;100.00;100161.78;4953550;28;20462;-90
2022/10/31 05:45:58;;;;;;;11.75;1.85;;;;;;;12.10;100.00;100177.56;4975318;28;20058;-90
2022/10/31 05:48:25;;;;;;;12.30;2.20;;;;;;;11.90;100.00;100137.50;4958722;28;20406;-90
2022/10/31 05:50:52;;;;;;;16.17;3.00;;;;;;;11.69;100.00;100133.34;4974234;28;20053;-91
2022/10/31 05:53:19;;;;;;;18.02;2.70;;;;;;;12.00;100.00;100160.63;4953260;29;20051;-91
2022/10/31 05:55:46;;;;;;;11.90;2.25;;;;;;;12.15;100.00;100160.66;4956309;28;20051;-91
2022/10/31 05:58:13;;;;;;;17.90;2.50;;;;;;;12.09;100.00;100147.00;4959300;28;20050;-91
2022/10/31 06:00:39;;;;;;;19.52;3.08;;;;;;;12.06;100.00;100148.03;4959207;28;20058;-91
2022/10/31 06:03:08;;;;;;;12.20;2.53;;;;;;;12.23;100.00;100148.91;4963834;28;20043;-90
2022/10/31 06:05:40;;;;;;;13.10;2.70;;;;;;;12.18;100.00;100137.78;4959067;28;20441;-91
2022/10/31 06:08:06;;;;;;;17.75;3.70;;;;;;;12.14;100.00;100122.19;4965974;28;20489;-91
2022/10/31 06:10:33;;;;;;;18.50;3.08;;;;;;;12.33;100.00;100140.44;4958443;28;20051;-91
2022/10/31 06:13:00;;;;;;;15.05;3.78;;;;;;;11.91;100.00;100091.94;4975570;28;20046;-91
2022/10/31 06:15:26;;;;;;;16.75;3.45;;;;;;;12.33;100.00;100135.19;4959673;28;20425;-91
2022/10/31 06:18:04;;;;;;;15.20;3.22;;;;;;;11.95;100.00;100093.50;4966839;28;20059;-91
2022/10/31 06:20:32;;;;;;;16.73;3.17;;;;;;;12.40;100.00;100155.88;4959198;28;20050;-91
2022/10/31 06:22:59;;;;;;;18.20;3.10;;;;;;;12.37;100.00;100153.41;4961282;28;20552;-91
2022/10/31 06:25:27;;;;;;;11.20;2.40;;;;;;;12.32;100.00;100130.00;4976939;28;20433;-90
2022/10/31 06:27:54;;;;;;;16.85;3.90;;;;;;;12.33;100.00;100158.81;4953388;28;20059;-90
2022/10/31 06:30:22;;;;;;;18.05;3.00;;;;;;;12.35;100.00;100167.44;4974503;28;20074;-90
2022/10/31 06:32:49;;;;;;;18.88;3.22;;;;;;;12.28;100.00;100139.00;4955062;29;20462;-91
2022/10/31 06:35:16;;;;;;;20.23;3.78;;;;;;;12.41;100.00;100153.16;4971860;28;20109;-91
2022/10/31 06:37:50;;;;;;;13.85;3.47;;;;;;;12.48;100.00;100124.78;4958143;28;20473;-91
2022/10/31 06:40:16;;;;;;;15.02;3.30;;;;;;;12.61;100.00;100136.31;4958707;28;20054;-92
2022/10/31 06:42:43;;;;;;;19.92;4.93;;;;;;;12.42;100.00;100089.22;4971524;28;20498;-91
2022/10/31 06:45:10;;;;;;;19.10;4.15;;;;;;;12.49;100.00;100090.56;4950526;28;20058;-91
2022/10/31 06:47:36;;;;;;;18.80;3.55;;;;;;;12.58;100.00;100110.22;4960849;28;20058;-92
2022/10/31 06:50:23;;;;;;;27.35;5.22;;;;;;;12.57;100.00;100103.28;4971293;28;20116;-90
2022/10/31 06:52:55;;;;;;;18.30;3.75;;;;;;;12.74;100.00;100120.69;4974366;28;20047;-91
2022/10/31 06:55:24;;;;;;;30.38;5.82;;;;;;;12.51;100.00;100103.59;4974021;28;20061;-91
2022/10/31 06:58:00;;;;;;;28.38;5.38;;;;;;;12.70;100.00;100145.44;4955671;28;20671;-91
2022/10/31 07:00:30;;;;;;;21.38;5.25;;;;;;;12.88;100.00;100149.66;4957741;28;20066;-89
2022/10/31 07:03:01;;;;;;;23.10;4.32;;;;;;;12.95;100.00;100155.41;4953590;28;20055;-91
2022/10/31 07:05:29;;;;;;;31.50;5.85;;;;;;;12.91;100.00;100140.78;4951328;28;20117;-91
2022/10/31 07:08:01;;;;;;;21.77;4.47;;;;;;;13.06;100.00;100170.56;4970934;28;20093;-91
2022/10/31 07:10:29;;;;;;;30.13;5.38;;;;;;;13.09;100.00;100160.72;4970113;28;20564;-91
2022/10/31 07:13:03;;;;;;;28.88;5.30;;;;;;;13.02;100.00;100162.03;4953375;28;20078;-92
2022/10/31 07:15:35;;;;;;;17.88;3.63;;;;;;;13.04;100.00;100154.88;4953304;28;20128;-91
2022/10/31 07:18:04;;;;;;;13.68;3.85;;;;;;;12.96;100.00;100148.38;4972333;28;20054;-91
2022/10/31 07:20:31;;;;;;;16.60;3.75;;;;;;;12.97;100.00;100157.97;4964922;28;20042;-90
2022/10/31 07:22:58;;;;;;;15.48;3.35;;;;;;;13.20;100.00;100178.50;4956056;28;20485;-90
2022/10/31 07:25:26;;;;;;;15.23;3.33;;;;;;;13.16;100.00;100177.00;4951257;28;20130;-91
2022/10/31 07:27:52;;;;;;;17.20;3.08;;;;;;;13.02;100.00;100182.22;4957940;28;20051;-91
2022/10/31 07:30:19;;;;;;;20.13;3.55;;;;;;;13.18;100.00;100192.69;4954124;28;20049;-90
2022/10/31 07:32:48;;;;;;;15.15;3.25;;;;;;;13.24;100.00;100202.84;4956257;28;20405;-90
2022/10/31 07:35:23;;;;;;;11.15;2.65;;;;;;;13.36;100.00;100189.03;4958122;28;20050;-90
2022/10/31 07:37:50;;;;;;;20.77;4.53;;;;;;;13.29;100.00;100185.88;4957161;28;20544;-90
2022/10/31 07:40:18;;;;;;;18.77;3.17;;;;;;;13.28;100.00;100163.16;4971447;28;20043;-89
2022/10/31 07:42:48;;;;;;;17.17;3.22;;;;;;;13.24;100.00;100169.53;4976965;28;20452;-90
2022/10/31 07:45:18;;;;;;;13.85;2.83;;;;;;;13.33;100.00;100167.31;4972682;28;20055;-90
2022/10/31 07:47:52;;;;;;;19.60;3.42;;;;;;;13.17;100.00;100178.69;4955953;28;20078;-89
2022/10/31 07:50:30;;;;;;;16.90;2.92;;;;;;;13.25;100.00;100184.34;4961550;28;20055;-90
2022/10/31 07:53:06;;;;;;;15.07;4.68;;;;;;;13.32;100.00;100189.31;4972860;28;20100;-90
2022/10/31 07:55:33;;;;;;;17.25;4.22;;;;;;;13.09;100.00;100184.38;4977189;28;20516;-90
2022/10/31 07:58:09;;;;;;;21.30;3.58;;;;;;;13.07;100.00;100182.78;4941152;29;20533;-89
2022/10/31 08:00:40;;;;;;;28.55;4.32;;;;;;;13.05;100.00;100195.16;4968872;28;20078;-89
2022/10/31 08:03:10;;;;;;;18.08;4.25;;;;;;;13.15;100.00;100196.31;4966190;28;20118;-90
2022/10/31 08:05:37;;;;;;;18.17;3.63;;;;;;;13.23;100.00;100206.44;4955697;28;20050;-90
2022/10/31 08:08:04;;;;;;;19.17;4.57;;;;;;;13.02;100.00;100195.34;4955740;28;20066;-90
2022/10/31 08:10:32;;;;;;;16.15;2.85;;;;;;;13.21;100.00;100192.50;4972424;28;20482;-90
2022/10/31 08:13:01;;;;;;;15.70;3.63;;;;;;;13.10;100.00;100201.00;4956115;28;20469;-90
2022/10/31 08:15:28;;;;;;;9.65;2.70;;;;;;;13.31;100.00;100193.69;4963370;28;20046;-90
2022/10/31 08:17:55;;;;;;;13.85;2.95;;;;;;;13.32;100.00;100203.28;4956564;28;20058;-90
2022/10/31 08:20:22;;;;;;;18.83;3.65;;;;;;;13.23;100.00;100196.75;4954984;28;20089;-90
2022/10/31 08:23:00;;;;;;;16.40;3.60;;;;;;;13.51;100.00;100197.81;4963048;28;20050;-90
2022/10/31 08:25:29;;;;;;;17.60;3.72;;;;;;;13.58;100.00;100193.03;4956046;28;20051;-90
2022/10/31 08:28:02;;;;;;;12.98;2.80;;;;;;;13.66;100.00;100175.84;4957044;28;20050;-90
2022/10/31 08:30:31;;;;;;;22.67;3.80;;;;;;;13.45;100.00;100199.00;4954843;28;20050;-89
2022/10/31 08:33:13;;;;;;;15.52;3.00;;;;;;;13.53;100.00;100182.78;4971989;28;20105;-89
2022/10/31 08:35:40;;;;;;;17.45;4.45;;;;;;;13.27;100.00;100160.63;4965425;28;20046;-91
2022/10/31 08:38:09;;;;;;;18.63;3.80;;;;;;;13.51;100.00;100184.69;4960261;28;20051;-89
2022/10/31 08:40:36;;;;;;;13.00;2.63;;;;;;;13.83;100.00;100171.41;4951969;29;20055;-90
2022/10/31 08:43:11;;;;;;;19.58;4.28;;;;;;;13.68;100.00;100136.31;4966948;28;20050;-91
2022/10/31 08:45:38;;;;;;;26.42;4.50;;;;;;;13.76;100.00;100191.13;4950520;29;20453;-90
2022/10/31 08:48:09;;;;;;;12.88;3.00;;;;;;;14.03;100.00;100184.19;4948806;28;20047;-90
2022/10/31 08:50:36;;;;;;;16.35;3.67;;;;;;;13.92;100.00;100181.34;4953942;28;20461;-91
2022/10/31 08:53:05;;;;;;;14.75;3.60;;;;;;;13.83;100.00;100182.75;4954864;28;20057;-90
2022/10/31 08:55:35;;;;;;;11.93;3.80;;;;;;;13.85;100.00;100186.13;4955032;28;20046;-90
2022/10/31 08:58:04;;;;;;;13.63;3.70;;;;;;;14.00;100.00;100159.81;4972463;28;20890;-89
2022/10/31 09:00:32;;;;;;;15.52;3.10;;;;;;;14.03;100.00;100178.91;4953426;28;20062;-89
2022/10/31 09:03:00;;;;;;;13.43;3.13;;;;;;;14.23;100.00;100169.78;4948882;29;20051;-90
2022/10/31 09:05:28;;;;;;;16.42;3.50;;;;;;;13.89;100.00;100149.97;4950928;28;20129;-88
2022/10/31 09:07:59;;;;;;;19.38;3.35;;;;;;;14.07;100.00;100176.09;4972060;28;20133;-92
2022/10/31 09:10:28;;;;;;;18.90;3.15;;;;;;;14.24;100.00;100181.19;4955213;28;20078;-92
2022/10/31 09:12:59;;;;;;;17.65;4.15;;;;;;;13.95;100.00;100152.22;4959147;28;20471;-91
2022/10/31 09:15:27;;;;;;;21.48;4.55;;;;;;;13.95;100.00;100138.22;4954875;28;20051;-91
2022/10/31 09:17:54;;;;;;;20.65;4.70;;;;;;;13.76;100.00;100149.03;4952178;28;20051;-91
2022/10/31 09:20:22;;;;;;;18.67;3.47;;;;;;;13.89;100.00;100157.84;4957909;28;20413;-92
2022/10/31 09:22:59;;;;;;;18.83;3.92;;;;;;;14.18;100.00;100157.84;4954711;28;20130;-91
2022/10/31 09:25:27;;;;;;;17.70;3.45;;;;;;;14.29;100.00;100162.44;4976522;28;20849;-91
2022/10/31 09:27:58;;;;;;;18.00;4.72;;;;;;;14.12;100.00;100155.59;4957436;28;20046;-91
2022/10/31 09:30:29;;;;;;;20.90;4.43;;;;;;;13.93;100.00;100159.34;4956567;28;20082;-90
2022/10/31 09:32:58;;;;;;;26.67;4.50;;;;;;;14.03;100.00;100149.13;4962809;28;20055;-92
2022/10/31 09:35:25;;;;;;;21.25;4.72;;;;;;;14.05;100.00;100141.97;4972156;28;20421;-91
2022/10/31 09:37:57;;;;;;;22.10;4.30;;;;;;;14.11;100.00;100125.81;4955476;28;20050;-91
2022/10/31 09:40:31;;;;;;;24.70;4.68;;;;;;;13.98;100.00;100130.13;4980969;28;20455;-92
2022/10/31 09:43:36;;;;;;;27.63;4.82;;;;;;;14.29;100.00;100141.38;4945741;29;20102;-92
2022/10/31 09:46:22;;;;;;;23.85;4.35;;;;;;;14.20;100.00;100146.28;4961054;28;20468;-91
2022/10/31 09:49:04;;;;;;;22.98;4.30;;;;;;;14.41;100.00;100136.22;4958798;28;20057;-91
2022/10/31 09:51:40;;;;;;;21.75;3.97;;;;;;;14.68;100.00;100140.69;4957464;28;20058;-92
2022/10/31 09:54:16;;;;;;;20.58;4.78;;;;;;;14.41;100.00;100127.44;4958162;28;20054;-92
2022/10/31 09:56:43;;;;;;;22.02;4.15;;;;;;;14.35;100.00;100101.50;4974553;28;20062;-92
2022/10/31 09:59:27;;;;;;;17.42;4.10;;;;;;;14.76;100.00;100112.03;4945578;28;20046;-92
2022/10/31 10:02:00;;;;;;;21.70;4.20;;;;;;;14.68;100.00;100121.38;4974366;28;20524;-92
2022/10/31 10:04:33;;;;;;;22.97;5.30;;;;;;;14.71;100.00;100121.19;4958051;28;20142;-90
2022/10/31 10:07:05;;;;;;;23.13;5.03;;;;;;;14.42;100.00;100134.41;4958507;28;20137;-92
2022/10/31 10:09:32;;;;;;;30.60;5.93;;;;;;;14.44;100.00;100119.34;4958883;28;20046;-92
2022/10/31 10:12:19;;;;;;;21.67;5.00;;;;;;;14.53;100.00;100136.38;4975390;28;20055;-91
2022/10/31 10:15:13;;;;;;;19.33;4.10;;;;;;;14.54;100.00;100130.16;4958061;28;20101;-92
2022/10/31 10:18:00;;;;;;;23.08;4.10;;;;;;;14.41;100.00;100112.50;4960533;28;20053;-92
2022/10/31 10:20:59;;;;;;;24.83;4.68;;;;;;;14.63;100.00;100129.59;4967942;28;20494;-92
2022/10/31 10:23:32;;;;;;;22.75;4.68;;;;;;;14.23;100.00;100130.28;4955157;28;20054;-93
2022/10/31 10:26:19;;;;;;;22.65;3.95;;;;;;;14.17;100.00;100128.06;4970157;28;20120;-91
2022/10/31 10:28:52;;;;;;;24.60;4.20;;;;;;;14.25;100.00;100114.41;4957078;28;20117;-91
2022/10/31 10:31:24;;;;;;;24.77;4.18;;;;;;;14.45;100.00;100118.44;4957859;28;20054;-91
2022/10/31 10:33:56;;;;;;;17.27;3.57;;;;;;;14.59;100.00;100143.94;4957835;28;20106;-91
2022/10/31 10:36:34;;;;;;;23.52;4.15;;;;;;;14.37;100.00;100149.66;4958147;28;20349;-90
2022/10/31 10:39:09;;;;;;;22.17;4.18;;;;;;;14.39;100.00;100117.00;4958586;28;20055;-92
2022/10/31 10:41:38;;;;;;;21.73;4.97;;;;;;;14.39;100.00;100132.81;4964339;28;20863;-92
2022/10/31 10:44:10;;;;;;;22.13;4.40;;;;;;;14.51;100.00;100138.25;4957662;28;20078;-92
2022/10/31 10:49:51;;;;;;;23.00;4.60;;;;;;;14.43;100.00;100147.50;4983812;28;20464;-91
2022/10/31 10:52:19;;;;;;;22.92;5.15;;;;;;;14.55;100.00;100139.75;4956727;28;20837;-91
2022/10/31 10:55:29;;;;;;;20.55;4.22;;;;;;;14.75;100.00;100144.63;4960722;28;20047;-92
2022/10/31 10:58:05;;;;;;;28.60;5.07;;;;;;;14.38;100.00;100151.34;4957577;28;20078;-91
2022/10/31 11:00:38;;;;;;;21.25;5.05;;;;;;;13.94;100.00;100133.91;4952536;28;20047;-92
2022/10/31 11:03:05;;;;;;;22.17;4.70;;;;;;;14.29;100.00;100125.56;4957598;28;20074;-92
2022/10/31 11:05:49;;;;;;;21.35;4.43;;;;;;;14.39;100.00;100156.50;4979218;28;20054;-92
2022/10/31 11:08:30;;;;;;;24.27;5.20;;;;;;;14.40;100.00;100150.31;4974852;28;20051;-91
2022/10/31 11:11:14;;;;;;;26.80;4.60;;;;;;;14.45;100.00;100123.69;4954024;28;20054;-92
2022/10/31 11:13:43;;;;;;;24.30;5.65;;;;;;;14.55;100.00;100137.94;4947427;28;20058;-92
2022/10/31 11:16:36;;;;;;;22.15;5.20;;;;;;;14.69;100.00;100167.88;4946405;28;20047;-92
2022/10/31 11:19:14;;;;;;;22.25;4.38;;;;;;;14.97;100.00;100151.13;4950746;28;20141;-92
2022/10/31 11:21:42;;;;;;;24.13;5.82;;;;;;;14.54;100.00;100141.53;4974033;28;20409;-92
2022/10/31 11:24:08;;;;;;;29.10;6.53;;;;;;;14.61;100.00;100152.56;4956670;28;20050;-92
2022/10/31 11:26:37;;;;;;;22.63;5.05;;;;;;;14.34;100.00;100150.72;4956884;28;20054;-91
2022/10/31 11:29:05;;;;;;;21.95;5.00;;;;;;;14.46;100.00;100135.06;4949230;28;20050;-91
2022/10/31 11:31:34;;;;;;;32.75;5.13;;;;;;;14.65;100.00;100125.06;4966909;28;20062;-91
2022/10/31 11:34:13;;;;;;;25.08;4.90;;;;;;;14.83;100.00;100135.38;4943427;28;20132;-91